Saipan, MP

2:39 AM ChST on July 29, 2014 (GMT +1000)
Saipan International (PGSN) Elev 213 ft | 15.12 °N, 145.73 °E | Change Station

Current weather conditions updated 45 minutes ago

Overcast
Overcast
79 °F
Feels Like 79 °F
N
4
Wind Variable Wind from NNW

Today is forecast to be Cooler than yesterday. Thunderstorms.

Today
High -- | Low -- °F
--% Chance of Precip.
Yesterday
High -- | Low -- °F
Precip. -- in
5:58 AM 6:48 PM
Waxing Crescent, 3% visible
Pressure 29.87 in
Visibility 10.0 miles
Clouds Scattered Clouds 5500 ft
Overcast 7000 ft
Dew Point 75 °F
Humidity 88%
Rainfall 0.00 in
Snow Depth Not available.
UV 0 out of 12
Pollen Not available.
Air Quality Not available.
Flu Activity Not available.
METAR PGSN 281554Z 34003KT 10SM SCT055 OVC070 26/24 A2981 RMK AO2 SLP115 T02600239 $

More Conditions Fewer Conditions

Pressure 29.87 in
Visibility 10.0 miles
Clouds Scattered Clouds 5500 ft
Overcast 7000 ft
Dew Point 75 °F
Humidity 88%
Rainfall 0.00 in
Snow Depth Not available.
UV 0 out of 12
Pollen Not available.
Air Quality Not available.
Flu Activity Not available.
METAR PGSN 281554Z 34003KT 10SM SCT055 OVC070 26/24 A2981 RMK AO2 SLP115 T02600239 $

More Conditions Fewer Conditions

10-Day Weather Forecast

Almanac

Astronomy

Jul. 29, 2014 Rise Set
Actual Time 5:58 AM ChST 6:48 PM ChST
Civil Twilight 5:35 AM ChST 7:11 PM ChST
Nautical Twilight 5:08 AM ChST 7:37 PM ChST
Astronomical Twilight 4:41 AM ChST 8:05 PM ChST
Moon 7:33 AM ChST (7/29) 8:11 PM ChST (7/29)
Length of Visible Light 13h 35m
Length of Day
12h 49m
Tomorrow will be 0m 36s shorter.
Waxing Crescent, 3% of the Moon is Illuminated
Jul 28
Waxing Crescent
Aug 3
First Quarter
Aug 10
Full
Aug 17
Last Quarter
Aug 25
New

Community

WunderPhotos

Upload Photos

1,738,407 photos uploaded!

Nearby

Snow Depth

Station Depth Elevation
No new snow has been reported.

Earthquake Activity

City Distance Mag. Time & Date
No recent earthquake activity has been reported nearby.
Minimum magnitude displayed is 2.5.

Coastal Water Temperatures

Place Temperature
No Stations Reporting

Nearby Weather Stations

There are no personal weather stations in this area.